Archival Weather

Chicago O'Hare International

Chicago, Illinois (KORD)

Report from: Friday, September 23, 2022 12:51 AM CDT
Current time: Wednesday, September 28, 2022 4:11 AM CDT

Current weather
Weather history
Weather forecast

Temperature10.6°C (51.1°F)
Dew point6.7°C (44.1°F)
Winds 3 kts (1.5 m/s, 3.5 mph) North-Northwest (330°)
Visibility10 mi. (16.1 km)
Clouds Few clouds 4,000 ft. (1,219 m)
Altimeter30.23 in.Hg (1024 mB)
Relative humidity77 %
Density altitude-737 ft. (-225 m)
Sea-level pressure102.4 kPa (1024 mB, 30.23 in.Hg)
Max temp last 6 hours14.4°C (57.9°F)
Min temp last 6 hours10.0°C (50.0°F)
Max temp last 24 hours17.8°C (64.0°F)
Min temp last 24 hours10.0°C (50.0°F)
Remarks Automated weather observing station with precipitation discriminator
Pressure rising
Flight conditions Visual Meteorological Conditions
Raw dataKORD 230551Z 33003KT 10SM FEW040 11/07 A3023 RMK AO2 SLP237 T01060067 10144 20100 401780100 52002
An error has occurred. This application may no longer respond until reloaded. Reload 🗙